createdAt,value
2022-09-15T00:00:19.383Z,98151.84
2022-09-15T00:02:46.412Z,98157.41
2022-09-15T00:05:13.398Z,98155.34
2022-09-15T00:07:39.936Z,98166.63
2022-09-15T00:10:07.403Z,98161.00
2022-09-15T00:12:34.125Z,98155.34
2022-09-15T00:15:00.729Z,98155.94
2022-09-15T00:17:28.398Z,98155.94
2022-09-15T00:19:54.929Z,98154.38
2022-09-15T00:22:21.476Z,98159.72
2022-09-15T00:24:49.302Z,98159.22
2022-09-15T00:27:17.093Z,98154.38
2022-09-15T00:29:43.616Z,98167.91
2022-09-15T00:32:10.572Z,98162.00
2022-09-15T00:34:37.116Z,98168.97
2022-09-15T00:37:03.773Z,98175.06
2022-09-15T00:39:30.282Z,98155.56
2022-09-15T00:41:56.862Z,98152.75
2022-09-15T00:44:23.287Z,98150.72
2022-09-15T00:47:15.194Z,98151.97
2022-09-15T00:49:40.875Z,98157.09
2022-09-15T00:52:12.235Z,98164.50
2022-09-15T00:55:37.417Z,98169.16
2022-09-15T00:58:08.238Z,98168.38
2022-09-15T01:00:35.450Z,98169.38
2022-09-15T01:03:03.194Z,98167.63
2022-09-15T01:05:34.303Z,98170.22
2022-09-15T01:08:36.517Z,98161.59
2022-09-15T01:11:03.099Z,98161.06
2022-09-15T01:13:29.947Z,98159.03
2022-09-15T01:16:05.624Z,98154.19
2022-09-15T01:18:47.035Z,98159.31
2022-09-15T01:21:19.227Z,98160.88
2022-09-15T01:24:00.860Z,98168.38
2022-09-15T01:26:47.664Z,98159.59
2022-09-15T01:29:35.263Z,98159.13
2022-09-15T01:32:29.247Z,98161.94
2022-09-15T01:35:05.415Z,98153.50
2022-09-15T01:37:39.959Z,98154.28
2022-09-15T01:40:08.991Z,98157.84
2022-09-15T01:42:37.623Z,98149.91
2022-09-15T01:45:11.495Z,98147.06
2022-09-15T01:47:39.916Z,98144.25
2022-09-15T01:50:11.678Z,98140.19
2022-09-15T01:52:43.329Z,98135.81
2022-09-15T01:55:18.070Z,98134.84
2022-09-15T01:57:45.503Z,98136.88
2022-09-15T02:00:12.903Z,98145.81
2022-09-15T02:02:44.070Z,98141.72
2022-09-15T02:05:20.744Z,98132.47
2022-09-15T02:08:16.046Z,98118.41
2022-09-15T02:10:58.770Z,98118.41
2022-09-15T02:13:48.700Z,98131.22
2022-09-15T02:16:24.108Z,98119.19
2022-09-15T02:18:59.707Z,98115.09
2022-09-15T02:21:37.285Z,98137.66
2022-09-15T02:24:14.228Z,98128.41
2022-09-15T02:26:42.914Z,98121.53
2022-09-15T02:29:14.043Z,98127.63
2022-09-15T02:31:42.671Z,98131.72
2022-09-15T02:34:18.029Z,98134.84
2022-09-15T02:36:45.493Z,98141.25
2022-09-15T02:39:17.230Z,98124.03
2022-09-15T02:41:43.809Z,98119.19
2022-09-15T02:44:10.396Z,98119.97
2022-09-15T02:46:37.098Z,98117.91
2022-09-15T02:49:03.664Z,98105.88
2022-09-15T02:51:31.060Z,98115.09
2022-09-15T02:53:57.669Z,98106.66
2022-09-15T02:56:24.150Z,98110.25
2022-09-15T02:58:50.716Z,98104.09
2022-09-15T03:01:17.547Z,98115.09
2022-09-15T03:03:45.075Z,98115.88
2022-09-15T03:06:19.822Z,98113.81
2022-09-15T03:08:55.765Z,98108.19
2022-09-15T03:11:24.877Z,98108.97
2022-09-15T03:13:57.378Z,98090.53
2022-09-15T03:16:25.297Z,98092.56
2022-09-15T03:18:53.588Z,98097.41
2022-09-15T03:21:20.294Z,98093.34
2022-09-15T03:23:46.829Z,98092.56
2022-09-15T03:26:13.726Z,98082.81
2022-09-15T03:28:40.494Z,98088.47
2022-09-15T03:31:08.919Z,98092.56
2022-09-15T03:33:36.509Z,98106.94
2022-09-15T03:36:03.795Z,98106.94
2022-09-15T03:38:30.480Z,98111.00
2022-09-15T03:41:01.488Z,98116.63
2022-09-15T03:43:29.364Z,98109.75
2022-09-15T03:45:56.603Z,98115.09
2022-09-15T03:48:24.584Z,98111.00
2022-09-15T03:50:52.012Z,98122.28
2022-09-15T03:53:20.138Z,98112.56
2022-09-15T03:55:47.760Z,98108.19
2022-09-15T03:58:14.975Z,98109.47
2022-09-15T04:00:41.549Z,98108.19
2022-09-15T04:03:08.697Z,98108.19
2022-09-15T04:05:36.554Z,98096.91
2022-09-15T04:08:03.147Z,98107.44
2022-09-15T04:10:29.652Z,98111.78
2022-09-15T04:12:56.228Z,98112.56
2022-09-15T04:15:22.874Z,98130.72
2022-09-15T04:17:49.516Z,98117.41
2022-09-15T04:20:17.240Z,98123.06
2022-09-15T04:22:44.827Z,98132.78
2022-09-15T04:25:11.603Z,98140.75
2022-09-15T04:27:38.927Z,98143.84
2022-09-15T04:30:07.782Z,98134.31
2022-09-15T04:32:35.747Z,98127.44
2022-09-15T04:35:03.007Z,98124.63
2022-09-15T04:37:29.818Z,98123.84
2022-09-15T04:39:56.799Z,98124.63
2022-09-15T04:42:23.998Z,98115.38
2022-09-15T04:44:50.992Z,98113.13
2022-09-15T04:47:17.951Z,98128.84
2022-09-15T04:49:44.500Z,98119.91
2022-09-15T04:52:11.034Z,98117.34
2022-09-15T04:54:37.560Z,98126.41
2022-09-15T04:57:04.303Z,98123.84
2022-09-15T04:59:30.878Z,98119.75
2022-09-15T05:01:57.518Z,98124.13
2022-09-15T05:04:24.103Z,98117.72
2022-09-15T05:06:50.639Z,98113.63
2022-09-15T05:09:17.168Z,98110.31
2022-09-15T05:11:43.690Z,98123.16
2022-09-15T05:14:11.017Z,98148.81
2022-09-15T05:16:37.913Z,98154.47
2022-09-15T05:19:04.817Z,98160.38
2022-09-15T05:21:31.826Z,98163.47
2022-09-15T05:23:58.355Z,98161.94
2022-09-15T05:26:28.170Z,98161.16
2022-09-15T05:28:56.151Z,98166.31
2022-09-15T05:31:28.727Z,98156.78
2022-09-15T05:33:55.389Z,98155.53
2022-09-15T05:36:25.319Z,98174.00
2022-09-15T05:38:58.756Z,98167.31
2022-09-15T05:41:27.157Z,98164.97
2022-09-15T05:43:55.415Z,98173.91
2022-09-15T05:46:22.565Z,98173.13
2022-09-15T05:48:49.219Z,98167.19
2022-09-15T05:51:15.759Z,98162.34
2022-09-15T05:53:42.487Z,98165.91
2022-09-15T05:56:14.020Z,98165.56
2022-09-15T05:58:41.887Z,98169.50
2022-09-15T06:01:13.468Z,98171.75
2022-09-15T06:03:40.714Z,98173.75
2022-09-15T06:06:07.740Z,98167.09
2022-09-15T06:08:43.768Z,98170.13
2022-09-15T06:11:16.798Z,98174.13
2022-09-15T06:13:44.436Z,98187.34
2022-09-15T06:16:13.899Z,98182.06
2022-09-15T06:18:41.646Z,98183.03
2022-09-15T06:21:13.580Z,98193.66
2022-09-15T06:23:40.759Z,98209.47
2022-09-15T06:26:12.898Z,98228.34
2022-09-15T06:28:42.140Z,98236.75
2022-09-15T06:31:12.858Z,98245.16
2022-09-15T06:33:44.141Z,98231.75
2022-09-15T06:36:12.073Z,98240.91
2022-09-15T06:38:39.543Z,98248.31
2022-09-15T06:41:06.787Z,98252.91
2022-09-15T06:43:34.335Z,98251.06
2022-09-15T06:46:04.531Z,98248.44
2022-09-15T06:48:32.207Z,98251.75
2022-09-15T06:50:59.207Z,98247.88
2022-09-15T06:53:27.759Z,98237.09
2022-09-15T06:55:54.840Z,98223.47
2022-09-15T06:58:21.471Z,98211.13
2022-09-15T07:00:47.953Z,98208.53
2022-09-15T07:03:14.585Z,98214.94
2022-09-15T07:05:41.270Z,98214.63
2022-09-15T07:08:07.834Z,98214.34
2022-09-15T07:10:34.517Z,98226.41
2022-09-15T07:13:01.334Z,98236.09
2022-09-15T07:15:27.860Z,98243.78
2022-09-15T07:17:54.661Z,98230.97
2022-09-15T07:20:21.598Z,98236.59
2022-09-15T07:22:48.148Z,98237.88
2022-09-15T07:25:14.676Z,98248.88
2022-09-15T07:27:41.201Z,98247.28
2022-09-15T07:30:08.653Z,98265.22
2022-09-15T07:32:35.401Z,98253.44
2022-09-15T07:35:02.368Z,98255.75
2022-09-15T08:38:45.715Z,98226.59
2022-09-15T08:41:21.020Z,98231.75
2022-09-15T08:44:08.107Z,98227.38
2022-09-15T08:46:43.492Z,98226.59
2022-09-15T08:49:35.423Z,98229.69
2022-09-15T08:52:13.884Z,98228.16
2022-09-15T08:54:40.384Z,98236.59
2022-09-15T08:57:14.184Z,98224.06
2022-09-15T08:59:40.731Z,98228.94
2022-09-15T09:02:12.994Z,98228.94
2022-09-15T09:04:53.757Z,98222.50
2022-09-15T09:07:35.234Z,98216.88
2022-09-15T09:10:10.798Z,98216.88
2022-09-15T09:13:00.654Z,98217.66
2022-09-15T09:15:33.496Z,98216.38
2022-09-15T09:18:22.409Z,98216.38
2022-09-15T09:21:22.198Z,98213.56
2022-09-15T09:24:12.698Z,98207.91
2022-09-15T09:26:39.923Z,98196.66
2022-09-15T09:29:26.754Z,98201.50
2022-09-15T09:31:55.817Z,98188.97
2022-09-15T09:34:55.785Z,98191.78
2022-09-15T09:37:22.778Z,98184.59
2022-09-15T09:39:49.381Z,98173.31
2022-09-15T09:42:18.481Z,98172.06
2022-09-15T09:44:46.766Z,98168.44
2022-09-15T09:47:13.340Z,98155.13
2022-09-15T09:49:47.664Z,98143.09
2022-09-15T09:52:32.131Z,98145.91
2022-09-15T09:55:23.061Z,98143.88
2022-09-15T09:57:50.146Z,98141.03
2022-09-15T10:00:38.218Z,98169.22
2022-09-15T10:03:15.722Z,98174.09
2022-09-15T10:05:43.206Z,98161.56
2022-09-15T10:08:20.534Z,98159.22
2022-09-15T10:10:52.784Z,98174.88
2022-09-15T10:13:20.055Z,98170.00
2022-09-15T10:15:53.678Z,98152.31
2022-09-15T10:18:38.775Z,98155.13
2022-09-15T10:21:09.610Z,98156.69
2022-09-15T10:23:36.791Z,98147.47
2022-09-15T10:26:30.142Z,98152.59
2022-09-15T10:29:17.617Z,98161.06
2022-09-15T10:31:45.825Z,98154.63
2022-09-15T10:34:32.146Z,98151.06
2022-09-15T10:37:27.140Z,98156.69
2022-09-15T10:40:00.059Z,98160.28
2022-09-15T10:42:38.263Z,98159.03
2022-09-15T10:45:14.878Z,98149.78
2022-09-15T10:48:02.797Z,98150.56
2022-09-15T10:50:36.006Z,98142.09
2022-09-15T10:53:14.387Z,98145.72
2022-09-15T10:55:55.654Z,98137.25
2022-09-15T10:58:45.876Z,98131.59
2022-09-15T11:01:28.295Z,98125.97
2022-09-15T11:04:31.086Z,98134.44
2022-09-15T11:07:00.502Z,98125.97
2022-09-15T11:09:36.104Z,98121.91
2022-09-15T11:12:11.307Z,98113.44
2022-09-15T11:14:37.730Z,98109.34
2022-09-15T11:17:19.730Z,98102.16
2022-09-15T11:20:14.141Z,98107.81
2022-09-15T11:23:39.879Z,98104.97
2022-09-15T11:26:17.477Z,98111.41
2022-09-15T11:28:59.557Z,98119.06
2022-09-15T11:31:42.460Z,98117.03
2022-09-15T11:34:32.041Z,98118.59
2022-09-15T11:37:21.299Z,98108.56
2022-09-15T11:40:04.722Z,98120.63
2022-09-15T11:43:03.839Z,98131.91
2022-09-15T11:45:38.331Z,98121.91
2022-09-15T11:48:32.149Z,98121.91
2022-09-15T11:51:01.738Z,98124.72
2022-09-15T11:53:38.235Z,98128.31
2022-09-15T11:56:21.822Z,98126.28
2022-09-15T11:59:06.858Z,98126.28
2022-09-15T12:01:51.758Z,98131.13
2022-09-15T12:04:32.339Z,98130.34
2022-09-15T12:07:20.981Z,98137.56
2022-09-15T12:09:48.235Z,98144.75
2022-09-15T12:12:18.525Z,98142.41
2022-09-15T12:14:48.120Z,98153.69
2022-09-15T12:17:48.289Z,98158.53
2022-09-15T12:20:26.736Z,98154.47
2022-09-15T12:23:16.617Z,98152.91
2022-09-15T12:26:00.110Z,98150.88
2022-09-15T12:28:46.781Z,98146.00
2022-09-15T12:31:38.503Z,98132.69
2022-09-15T12:34:24.738Z,98127.06
2022-09-15T12:37:06.358Z,98120.63
2022-09-15T12:39:51.732Z,98110.13
2022-09-15T12:42:21.336Z,98110.13
2022-09-15T12:44:50.410Z,98099.66
2022-09-15T12:47:39.217Z,98099.66
2022-09-15T12:50:24.593Z,98099.66
2022-09-15T12:52:57.185Z,98091.94
2022-09-15T12:55:25.184Z,98100.41
2022-09-15T12:57:55.151Z,98094.00
2022-09-15T13:00:28.963Z,98080.19
2022-09-15T13:02:56.438Z,98075.81
2022-09-15T13:05:41.465Z,98076.06
2022-09-15T13:08:15.231Z,98070.16
2022-09-15T13:10:59.253Z,98064.06
2022-09-15T13:13:50.293Z,98055.59
2022-09-15T13:16:31.114Z,98046.34
2022-09-15T13:19:40.982Z,98040.72
2022-09-15T13:22:30.069Z,98036.59
2022-09-15T13:25:14.555Z,98032.53
2022-09-15T13:27:43.005Z,98028.94
2022-09-15T13:30:31.417Z,98025.34
2022-09-15T13:33:12.958Z,98026.13
2022-09-15T13:35:51.883Z,98043.03
2022-09-15T13:38:46.620Z,98047.88
2022-09-15T13:41:40.029Z,98058.69
2022-09-15T13:44:42.007Z,98050.22
2022-09-15T13:47:26.912Z,98038.16
2022-09-15T13:50:11.817Z,98029.72
2022-09-15T13:52:50.523Z,98026.91
2022-09-15T13:55:26.364Z,98032.53
2022-09-15T14:00:54.253Z,98027.66
2022-09-15T14:03:54.954Z,98028.44
2022-09-15T14:06:25.895Z,98034.09
2022-09-15T14:08:56.828Z,98035.63
2022-09-15T14:11:32.465Z,98029.97
2022-09-15T14:14:00.635Z,98027.66
2022-09-15T14:16:27.841Z,98031.28
2022-09-15T14:18:57.602Z,98035.63
2022-09-15T14:21:27.021Z,98034.38
2022-09-15T14:23:56.267Z,98034.38
2022-09-15T14:26:27.671Z,98039.22
2022-09-15T14:29:03.745Z,98045.66
2022-09-15T14:31:34.215Z,98045.66
2022-09-15T14:34:02.704Z,98052.53
2022-09-15T14:36:33.601Z,98045.66
2022-09-15T14:39:12.418Z,98052.81
2022-09-15T14:41:40.180Z,98054.88
2022-09-15T14:47:31.297Z,98072.56
2022-09-15T15:11:28.058Z,98057.97
2022-09-15T15:13:57.014Z,98045.13
2022-09-15T15:16:29.118Z,98051.56
2022-09-15T15:18:57.170Z,98062.84
2022-09-15T15:21:40.662Z,98069.25
2022-09-15T15:24:13.221Z,98067.22
2022-09-15T15:26:42.246Z,98070.50
2022-09-15T15:29:37.500Z,98068.47
2022-09-15T15:32:05.885Z,98075.66
2022-09-15T15:34:33.319Z,98052.34
2022-09-15T15:37:04.494Z,98050.28
2022-09-15T15:39:31.201Z,98058.75
2022-09-15T15:42:04.288Z,98062.84
2022-09-15T15:44:31.377Z,98070.03
2022-09-15T15:47:24.973Z,98097.44
2022-09-15T15:50:15.864Z,98141.28
2022-09-15T15:52:43.850Z,98120.00
2022-09-15T15:55:15.111Z,98120.00
2022-09-15T15:57:41.772Z,98105.13
2022-09-15T16:00:21.544Z,98104.63
2022-09-15T16:02:48.662Z,98092.59
2022-09-15T16:05:15.475Z,98106.69
2022-09-15T16:07:43.790Z,98109.50
2022-09-15T16:10:16.131Z,98100.28
2022-09-15T16:12:42.648Z,98107.94
2022-09-15T16:15:12.485Z,98120.00
2022-09-15T16:17:45.894Z,98120.00
2022-09-15T16:20:15.933Z,98121.25
2022-09-15T16:22:43.212Z,98136.16
2022-09-15T16:25:40.014Z,98141.78
2022-09-15T17:11:20.101Z,98163.78
2022-09-15T17:13:47.157Z,98163.28
2022-09-15T17:16:15.365Z,98149.19
2022-09-15T17:18:42.014Z,98151.50
2022-09-15T17:21:12.266Z,98146.16
2022-09-15T17:23:41.291Z,98150.53
2022-09-15T17:26:13.695Z,98160.53
2022-09-15T17:28:41.142Z,98157.72
2022-09-15T17:31:17.721Z,98160.03
2022-09-15T17:33:45.123Z,98147.97
2022-09-15T17:36:12.002Z,98150.78
2022-09-15T17:38:40.908Z,98156.44
2022-09-15T17:41:13.626Z,98157.72
2022-09-15T17:43:40.131Z,98151.31
2022-09-15T17:46:07.838Z,98158.97
2022-09-15T17:48:34.775Z,98158.19
2022-09-15T17:51:01.567Z,98137.72
2022-09-15T17:53:28.166Z,98147.69
2022-09-15T17:55:55.645Z,98141.00
2022-09-15T17:58:24.904Z,98133.06
2022-09-15T18:00:52.304Z,98141.22
2022-09-15T18:03:29.184Z,98138.09
2022-09-15T18:05:58.402Z,98131.41
2022-09-15T18:08:26.044Z,98115.00
2022-09-15T18:10:52.573Z,98115.50
2022-09-15T18:13:22.754Z,98106.22
2022-09-15T18:15:49.844Z,98120.53
2022-09-15T18:18:21.383Z,98113.84
2022-09-15T18:20:49.831Z,98119.47
2022-09-15T18:23:24.087Z,98129.22
2022-09-15T18:25:51.258Z,98133.28
2022-09-15T18:28:19.130Z,98125.34
2022-09-15T18:30:48.069Z,98128.91
2022-09-15T18:33:17.352Z,98138.38
2022-09-15T18:35:44.346Z,98130.91
2022-09-15T18:38:11.966Z,98125.75
2022-09-15T18:40:38.840Z,98128.28
2022-09-15T18:43:05.682Z,98125.19
2022-09-15T18:45:32.201Z,98118.00
2022-09-15T18:47:58.707Z,98125.19
2022-09-15T18:50:25.590Z,98130.53
2022-09-15T18:52:52.317Z,98131.31
2022-09-15T18:55:21.619Z,98129.75
2022-09-15T18:57:48.479Z,98145.13
2022-09-15T19:00:20.674Z,98145.59
2022-09-15T19:02:47.702Z,98160.19
2022-09-15T19:05:15.677Z,98164.25
2022-09-15T19:07:43.562Z,98166.81
2022-09-15T19:10:11.560Z,98167.09
2022-09-15T19:12:39.174Z,98181.16
2022-09-15T19:15:10.856Z,98177.09
2022-09-15T19:17:39.408Z,98182.72
2022-09-15T19:20:08.255Z,98182.72
2022-09-15T19:22:35.433Z,98177.09
2022-09-15T19:25:02.189Z,98189.91
2022-09-15T19:27:29.071Z,98191.97
2022-09-15T19:29:55.622Z,98191.19
2022-09-15T19:32:22.331Z,98198.06
2022-09-15T19:34:49.335Z,98206.53
2022-09-15T19:37:19.176Z,98213.63
2022-09-15T19:39:47.057Z,98216.19
2022-09-15T19:44:47.846Z,98214.06
2022-09-15T19:47:14.453Z,98222.22
2022-09-15T19:49:41.127Z,98221.16
2022-09-15T19:52:07.812Z,98235.94
2022-09-15T19:54:34.620Z,98237.97
2022-09-15T19:57:02.498Z,98239.72
2022-09-15T19:59:31.678Z,98238.34
2022-09-15T20:01:59.282Z,98236.00
2022-09-15T20:04:26.624Z,98231.84
2022-09-15T20:06:53.155Z,98241.56
2022-09-15T20:09:19.670Z,98241.25
2022-09-15T20:11:46.215Z,98237.97
2022-09-15T20:14:12.735Z,98243.31
2022-09-15T20:16:39.560Z,98234.88
2022-09-15T20:19:06.195Z,98241.44
2022-09-15T20:21:51.465Z,98231.41
2022-09-15T20:24:19.940Z,98246.47
2022-09-15T20:26:46.619Z,98246.47
2022-09-15T20:29:13.319Z,98252.09
2022-09-15T20:31:40.319Z,98255.41
2022-09-15T20:34:06.849Z,98263.38
2022-09-15T20:36:36.489Z,98249.00
2022-09-15T20:39:05.732Z,98255.41
2022-09-15T20:41:32.266Z,98260.53
2022-09-15T20:43:59.589Z,98259.59
2022-09-15T20:46:26.786Z,98264.75
2022-09-15T20:48:53.474Z,98267.38
2022-09-15T20:51:22.883Z,98278.94
2022-09-15T20:53:51.691Z,98282.06
2022-09-15T20:56:21.251Z,98288.28
2022-09-15T20:58:48.024Z,98288.28
2022-09-15T21:01:21.657Z,98295.44
2022-09-15T21:03:48.464Z,98290.59
2022-09-15T21:06:17.871Z,98284.50
2022-09-15T21:08:44.715Z,98293.22
2022-09-15T21:11:11.611Z,98287.59
2022-09-15T21:13:40.425Z,98279.31
2022-09-15T21:16:15.857Z,98296.69
2022-09-15T21:18:43.697Z,98296.34
2022-09-15T21:21:24.432Z,98295.63
2022-09-15T21:23:56.322Z,98293.75
2022-09-15T21:26:25.427Z,98303.16
2022-09-15T21:28:53.094Z,98309.59
2022-09-15T21:31:26.158Z,98303.84
2022-09-15T21:33:53.959Z,98314.53
2022-09-15T21:36:24.546Z,98319.66
2022-09-15T21:38:53.390Z,98323.94
2022-09-15T21:41:22.118Z,98319.25
2022-09-15T21:43:50.011Z,98333.03
2022-09-15T21:46:19.908Z,98332.63
2022-09-15T21:48:48.037Z,98335.94
2022-09-15T21:51:23.470Z,98340.00
2022-09-15T21:53:52.580Z,98347.66
2022-09-15T21:56:19.358Z,98353.13
2022-09-15T21:58:46.155Z,98358.16
2022-09-15T22:01:20.007Z,98363.66
2022-09-15T22:03:51.823Z,98367.72
2022-09-15T22:06:20.977Z,98368.03
2022-09-15T22:08:48.210Z,98374.31
2022-09-15T22:11:15.078Z,98385.28
2022-09-15T22:13:44.607Z,98385.13
2022-09-15T22:16:13.941Z,98398.75
2022-09-15T22:18:41.622Z,98397.38
2022-09-15T22:21:18.540Z,98402.38
2022-09-15T22:23:47.116Z,98424.09
2022-09-15T22:26:19.597Z,98438.97
2022-09-15T22:28:46.518Z,98431.91
2022-09-15T22:31:14.950Z,98434.59
2022-09-15T22:33:42.453Z,98435.06
2022-09-15T22:36:13.726Z,98441.78
2022-09-15T22:38:40.537Z,98441.19
2022-09-15T22:41:10.185Z,98452.44
2022-09-15T22:43:36.822Z,98456.31
2022-09-15T22:46:03.574Z,98455.66
2022-09-15T22:48:30.160Z,98452.44
2022-09-15T22:50:56.730Z,98456.47
2022-09-15T22:53:23.533Z,98458.97
2022-09-15T22:55:51.395Z,98473.00
2022-09-15T22:58:18.075Z,98471.78
2022-09-15T23:00:44.736Z,98472.25
2022-09-15T23:03:11.685Z,98472.13
2022-09-15T23:05:38.324Z,98481.94
2022-09-15T23:08:04.965Z,98488.66
2022-09-15T23:10:32.312Z,98484.28
2022-09-15T23:12:59.583Z,98478.66
2022-09-15T23:15:26.329Z,98480.25
2022-09-15T23:17:52.878Z,98490.91
2022-09-15T23:20:19.402Z,98495.44
2022-09-15T23:22:45.902Z,98499.19
2022-09-15T23:25:12.963Z,98497.81
2022-09-15T23:27:39.564Z,98502.81
2022-09-15T23:30:06.406Z,98503.28
2022-09-15T23:32:32.911Z,98505.16
2022-09-15T23:34:59.406Z,98514.69
2022-09-15T23:37:26.000Z,98513.91
2022-09-15T23:39:52.561Z,98510.00
2022-09-15T23:42:19.220Z,98513.44
2022-09-15T23:44:45.831Z,98504.56
2022-09-15T23:47:12.353Z,98511.91
2022-09-15T23:49:38.865Z,98506.28
2022-09-15T23:52:05.388Z,98502.19
2022-09-15T23:54:31.883Z,98512.19
2022-09-15T23:56:58.455Z,98508.47
2022-09-15T23:59:25.048Z,98495.97
